Terminal Aerodrome Forecast
Issued by NWS Wilmington, OH

Current Version | Previous Version | Text Only | Print | Product List | Glossary Off
Versions: 1 2 3 4 5 6 7 8 9 10 11 12 13 14 15 16 17 18 19 20 21 22 23 24 25 26 27 28

081
FTUS41 KILN 261459 AAB
TAFCMH
TAF AMD
KCMH 261459Z 2615/2712 35011G21KT P6SM VCTS SCT020CB BKN027 OVC030
      TEMPO 2615/2618 4SM -TSRA BKN018CB OVC025
     FM261800 29012G20KT P6SM BKN025
     FM262000 28012G18KT P6SM SKC
     FM270100 24005KT P6SM SKC=

USA.gov is the U.S. government's official web portal to all federal, state and local government web resources and services.